Time;durP1;ratioP1;P1;durP2;ratioP2;P2;SDS_P1;SDS_P2;PMS_P1;PMS_P2;Temp;Humidity;BMP_temperature;BMP_pressure;BME280_temperature;BME280_humidity;BME280_pressure;Samples;Min_cycle;Max_cycle;Signal;HPM_P1;HPM_P2
2021/10/20 00:01:00;;;;;;;5.10;2.85;;;15.30;92.20;;;;;;2057502;28;20073;-91
2021/10/20 00:02:01;;;;;;;4.55;2.92;;;15.30;92.20;;;;;;2057611;28;20058;-91
2021/10/20 00:03:01;;;;;;;4.35;2.65;;;15.30;92.10;;;;;;2049999;28;20073;-91
2021/10/20 00:04:04;;;;;;;4.25;2.78;;;15.30;92.10;;;;;;2057687;28;20041;-91
2021/10/20 00:05:05;;;;;;;5.40;2.78;;;15.30;92.10;;;;;;2057756;28;20491;-91
2021/10/20 00:06:05;;;;;;;4.13;3.17;;;15.30;92.10;;;;;;2049461;29;20043;-90
2021/10/20 00:07:06;;;;;;;4.10;2.80;;;15.20;92.10;;;;;;2040711;28;20065;-91
2021/10/20 00:08:07;;;;;;;5.13;2.80;;;15.20;92.10;;;;;;2049787;28;20043;-90
2021/10/20 00:09:08;;;;;;;4.55;2.90;;;15.20;92.10;;;;;;2065898;28;20052;-92
2021/10/20 00:10:09;;;;;;;4.45;2.92;;;15.20;92.10;;;;;;2065542;28;20042;-91
2021/10/20 00:11:10;;;;;;;4.55;2.70;;;15.20;92.10;;;;;;2049320;28;20043;-91
2021/10/20 00:12:11;;;;;;;4.10;2.83;;;15.20;92.10;;;;;;2057586;28;20125;-91
2021/10/20 00:13:11;;;;;;;4.63;2.50;;;15.20;92.10;;;;;;2073779;28;20404;-92
2021/10/20 00:14:12;;;;;;;4.75;2.83;;;15.20;92.10;;;;;;2058206;28;20487;-91
2021/10/20 00:15:16;;;;;;;3.88;2.58;;;15.20;92.00;;;;;;2057893;28;20178;-92
2021/10/20 00:16:18;;;;;;;4.47;2.97;;;15.20;92.00;;;;;;2065785;28;20113;-91
2021/10/20 00:17:19;;;;;;;3.60;2.55;;;15.20;92.00;;;;;;2073225;28;20085;-91
2021/10/20 00:18:20;;;;;;;4.07;2.63;;;15.20;92.00;;;;;;2049640;28;20031;-92
2021/10/20 00:19:21;;;;;;;3.80;2.60;;;15.20;92.00;;;;;;2046351;28;20031;-92
2021/10/20 00:20:24;;;;;;;3.60;2.60;;;15.10;92.00;;;;;;2049602;28;20093;-92
2021/10/20 00:21:27;;;;;;;3.75;2.50;;;15.10;92.00;;;;;;2049946;28;20062;-92
2021/10/20 00:22:27;;;;;;;4.00;2.78;;;15.10;92.00;;;;;;2050446;28;20064;-91
2021/10/20 00:23:28;;;;;;;4.43;2.75;;;15.10;92.00;;;;;;2042149;29;20440;-91
2021/10/20 00:24:29;;;;;;;4.30;2.70;;;15.10;92.00;;;;;;2041736;29;20071;-92
2021/10/20 00:25:29;;;;;;;3.85;2.70;;;15.10;92.10;;;;;;2063173;28;20035;-92
2021/10/20 00:26:30;;;;;;;3.15;2.35;;;15.10;92.10;;;;;;2049955;28;20125;-92
2021/10/20 00:27:31;;;;;;;4.25;2.60;;;15.10;92.10;;;;;;2073691;28;20036;-92
2021/10/20 00:28:32;;;;;;;4.32;2.75;;;15.10;92.10;;;;;;2073566;28;20436;-92
2021/10/20 00:29:32;;;;;;;3.97;2.70;;;15.10;92.10;;;;;;2049416;28;20042;-92
2021/10/20 00:30:34;;;;;;;5.18;2.90;;;15.00;92.00;;;;;;2053543;28;20039;-92
2021/10/20 00:31:34;;;;;;;4.05;2.60;;;15.00;92.10;;;;;;2075789;28;20123;-92
2021/10/20 00:32:35;;;;;;;4.45;2.80;;;15.00;92.00;;;;;;2060086;28;20050;-92
2021/10/20 00:33:36;;;;;;;4.50;2.75;;;15.00;92.20;;;;;;2057088;28;20043;-91
2021/10/20 00:34:37;;;;;;;3.83;2.42;;;15.00;92.00;;;;;;2065487;28;20067;-91
2021/10/20 00:35:38;;;;;;;3.28;2.28;;;15.00;92.00;;;;;;2065523;28;20104;-92
2021/10/20 00:36:38;;;;;;;4.43;2.85;;;15.00;92.00;;;;;;2062133;28;20042;-92
2021/10/20 00:37:40;;;;;;;4.30;2.78;;;15.00;92.00;;;;;;2040508;29;20040;-92
2021/10/20 00:38:41;;;;;;;3.92;2.50;;;15.00;92.00;;;;;;2049753;28;20039;-92
2021/10/20 00:39:42;;;;;;;3.92;2.75;;;15.00;92.00;;;;;;2073412;28;20069;-91
2021/10/20 00:40:42;;;;;;;3.72;2.50;;;15.00;92.00;;;;;;2057443;28;20050;-91
2021/10/20 00:41:43;;;;;;;3.80;2.40;;;15.00;92.00;;;;;;2057523;28;20058;-91
2021/10/20 00:42:44;;;;;;;4.40;2.67;;;15.00;91.90;;;;;;2065463;28;20035;-91
2021/10/20 00:43:45;;;;;;;4.68;3.10;;;15.00;91.90;;;;;;2065327;28;20505;-91
2021/10/20 00:44:48;;;;;;;4.07;2.63;;;15.00;91.90;;;;;;2073540;28;20034;-91
2021/10/20 00:45:49;;;;;;;3.97;2.47;;;15.00;91.90;;;;;;2072844;28;20045;-91
2021/10/20 00:46:49;;;;;;;3.63;2.70;;;15.00;91.90;;;;;;2073769;28;20045;-91
2021/10/20 00:47:51;;;;;;;4.22;2.80;;;15.00;91.90;;;;;;2057611;28;20045;-91
2021/10/20 00:48:52;;;;;;;2.97;2.20;;;15.00;91.80;;;;;;2050030;28;20626;-92
2021/10/20 00:49:54;;;;;;;3.67;2.45;;;15.00;91.80;;;;;;2057389;28;20052;-91
2021/10/20 00:50:54;;;;;;;3.63;2.40;;;15.00;91.80;;;;;;2058486;28;20090;-90
2021/10/20 00:51:56;;;;;;;3.33;2.22;;;15.00;91.80;;;;;;2057377;28;20043;-91
2021/10/20 00:52:58;;;;;;;3.33;2.30;;;15.00;91.80;;;;;;2057461;28;20094;-91
2021/10/20 00:53:59;;;;;;;3.80;2.35;;;15.00;91.80;;;;;;2064593;28;20054;-91
2021/10/20 00:55:01;;;;;;;3.88;2.50;;;15.00;91.80;;;;;;2065603;28;20046;-91
2021/10/20 00:56:01;;;;;;;4.68;2.25;;;15.00;91.80;;;;;;2057383;28;20039;-92
2021/10/20 00:57:03;;;;;;;3.97;2.58;;;15.00;91.80;;;;;;2049541;28;20509;-91
2021/10/20 00:58:05;;;;;;;3.58;2.17;;;15.00;91.70;;;;;;2052210;28;20035;-92
2021/10/20 00:59:06;;;;;;;4.60;2.75;;;15.00;91.70;;;;;;2057631;28;20125;-91
2021/10/20 01:00:09;;;;;;;4.00;2.65;;;15.00;91.70;;;;;;2041960;28;20044;-91
2021/10/20 01:01:10;;;;;;;3.75;2.55;;;15.00;91.60;;;;;;2058601;28;20412;-91
2021/10/20 01:02:10;;;;;;;3.10;2.10;;;15.00;91.60;;;;;;2057208;28;20039;-92
2021/10/20 01:03:12;;;;;;;3.15;2.17;;;15.00;91.60;;;;;;2065327;28;20121;-92
2021/10/20 01:04:12;;;;;;;3.90;2.40;;;15.00;91.50;;;;;;2073094;28;20026;-92
2021/10/20 01:05:13;;;;;;;3.67;2.50;;;15.00;91.50;;;;;;2049296;29;20039;-91
2021/10/20 01:06:16;;;;;;;3.70;2.53;;;15.00;91.50;;;;;;2043860;28;20035;-92
2021/10/20 01:07:18;;;;;;;3.42;2.40;;;15.10;91.40;;;;;;2065738;28;20038;-92
2021/10/20 01:08:20;;;;;;;3.42;2.35;;;15.10;91.40;;;;;;2073542;28;20136;-92
2021/10/20 01:09:21;;;;;;;3.58;2.40;;;15.10;91.40;;;;;;2065357;28;20038;-92
2021/10/20 01:10:22;;;;;;;4.63;2.60;;;15.10;91.40;;;;;;2057330;28;20035;-92
2021/10/20 01:11:23;;;;;;;4.07;2.80;;;15.10;91.30;;;;;;2057599;28;20050;-92
2021/10/20 01:12:24;;;;;;;4.13;2.78;;;15.10;91.30;;;;;;2049425;28;20083;-91
2021/10/20 01:13:25;;;;;;;3.70;2.60;;;15.10;91.30;;;;;;2062730;28;20041;-92
2021/10/20 01:14:28;;;;;;;3.67;2.50;;;15.10;91.30;;;;;;2065065;28;20042;-91
2021/10/20 01:15:29;;;;;;;4.05;2.35;;;15.10;91.20;;;;;;2057434;28;20054;-90
2021/10/20 01:16:30;;;;;;;4.93;2.30;;;15.10;91.20;;;;;;2041388;29;20478;-91
2021/10/20 01:17:31;;;;;;;3.55;2.40;;;15.10;91.20;;;;;;2041431;29;20554;-91
2021/10/20 01:18:33;;;;;;;4.22;2.40;;;15.10;91.20;;;;;;2057369;28;20034;-92
2021/10/20 01:19:35;;;;;;;2.92;2.10;;;15.10;91.20;;;;;;2073424;28;20030;-92
2021/10/20 01:20:38;;;;;;;3.55;2.25;;;15.10;91.20;;;;;;2073677;28;20054;-92
2021/10/20 01:21:39;;;;;;;4.80;2.47;;;15.20;91.20;;;;;;2058019;28;20145;-92
2021/10/20 01:22:40;;;;;;;4.07;2.60;;;15.10;91.10;;;;;;2057986;28;20513;-92
2021/10/20 01:23:41;;;;;;;4.10;2.42;;;15.20;91.10;;;;;;2064791;28;20039;-92
2021/10/20 01:24:41;;;;;;;5.00;2.65;;;15.10;91.10;;;;;;2064701;28;20034;-92
2021/10/20 01:25:42;;;;;;;3.75;2.13;;;15.20;91.10;;;;;;2057290;28;20124;-91
2021/10/20 01:26:43;;;;;;;3.05;2.17;;;15.20;91.00;;;;;;2049409;28;20043;-91
2021/10/20 01:27:44;;;;;;;3.83;2.30;;;15.20;91.00;;;;;;2057125;28;20037;-92
2021/10/20 01:28:45;;;;;;;3.42;2.20;;;15.20;91.20;;;;;;2073620;28;20042;-92
2021/10/20 01:29:45;;;;;;;3.63;2.50;;;15.20;91.00;;;;;;2066649;28;20038;-92
2021/10/20 01:30:46;;;;;;;4.13;2.38;;;15.20;90.90;;;;;;2074633;28;20058;-92
2021/10/20 01:31:53;;;;;;;4.93;2.40;;;15.20;90.90;;;;;;2057956;28;20117;-92
2021/10/20 01:32:54;;;;;;;4.10;2.53;;;15.20;90.80;;;;;;2076506;28;20026;-92
2021/10/20 01:33:54;;;;;;;5.60;2.70;;;15.30;90.80;;;;;;2075095;28;20037;-92
2021/10/20 01:34:55;;;;;;;5.20;2.70;;;15.30;90.80;;;;;;2058452;28;20528;-92
2021/10/20 01:35:56;;;;;;;3.83;2.40;;;15.30;90.70;;;;;;2034928;29;20036;-92
2021/10/20 01:37:01;;;;;;;4.15;2.50;;;15.30;90.70;;;;;;2051007;28;20530;-91
2021/10/20 01:38:02;;;;;;;4.53;2.70;;;15.30;90.70;;;;;;2045344;28;20473;-92
2021/10/20 01:39:03;;;;;;;3.35;2.35;;;15.30;90.70;;;;;;2059020;28;20090;-92
2021/10/20 01:40:05;;;;;;;3.80;2.42;;;15.30;90.60;;;;;;2053054;28;20046;-92
2021/10/20 01:41:06;;;;;;;3.92;2.60;;;15.30;90.60;;;;;;2058951;28;20031;-92
2021/10/20 01:42:07;;;;;;;3.92;2.60;;;15.30;90.60;;;;;;2058527;28;20117;-92
2021/10/20 01:43:07;;;;;;;3.00;2.10;;;15.40;90.50;;;;;;2050835;29;20040;-92
2021/10/20 01:44:08;;;;;;;3.55;2.38;;;15.40;90.50;;;;;;2058777;28;20268;-92
2021/10/20 01:45:13;;;;;;;5.40;2.92;;;15.40;90.50;;;;;;2058617;28;20055;-92
2021/10/20 01:46:19;;;;;;;2.65;1.80;;;15.40;90.50;;;;;;2052159;28;20039;-92
2021/10/20 01:47:21;;;;;;;3.90;2.50;;;15.40;90.40;;;;;;2065947;28;20034;-92
2021/10/20 01:48:21;;;;;;;3.42;2.38;;;15.40;90.40;;;;;;2058639;28;20054;-92
2021/10/20 01:49:23;;;;;;;4.30;2.67;;;15.40;90.40;;;;;;2055418;28;20180;-92
2021/10/20 01:50:23;;;;;;;4.65;2.65;;;15.40;90.30;;;;;;2066721;28;20038;-92
2021/10/20 01:51:24;;;;;;;3.50;2.38;;;15.50;90.30;;;;;;2058675;28;20043;-92
2021/10/20 01:52:25;;;;;;;3.85;2.55;;;15.50;90.30;;;;;;2063761;28;20049;-92
2021/10/20 01:53:26;;;;;;;3.70;2.38;;;15.50;90.30;;;;;;2066747;28;20030;-91
2021/10/20 01:54:26;;;;;;;4.55;2.75;;;15.50;90.30;;;;;;2058467;28;20038;-92
2021/10/20 01:55:27;;;;;;;4.45;2.50;;;15.50;90.20;;;;;;2058508;28;20062;-92
2021/10/20 01:56:28;;;;;;;4.57;2.80;;;15.50;90.20;;;;;;2066640;28;20043;-91
2021/10/20 01:57:28;;;;;;;3.85;2.45;;;15.50;90.10;;;;;;2056340;28;20125;-92
2021/10/20 01:58:29;;;;;;;4.72;2.60;;;15.50;90.10;;;;;;2058664;28;20065;-91
2021/10/20 01:59:30;;;;;;;5.03;2.80;;;15.50;90.10;;;;;;2058820;28;20035;-91
2021/10/20 02:00:31;;;;;;;4.40;2.72;;;15.50;90.10;;;;;;2050417;28;20053;-92
2021/10/20 02:01:31;;;;;;;4.70;3.03;;;15.50;90.00;;;;;;2058676;28;20038;-91
2021/10/20 02:02:32;;;;;;;4.03;2.75;;;15.60;90.00;;;;;;2051774;28;20414;-91
2021/10/20 02:03:35;;;;;;;4.10;2.70;;;15.60;90.00;;;;;;2050478;28;20250;-91
2021/10/20 02:04:36;;;;;;;5.15;2.70;;;15.50;89.90;;;;;;2059000;28;20489;-91
2021/10/20 02:05:37;;;;;;;5.45;2.88;;;15.60;90.00;;;;;;2058364;28;20070;-92
2021/10/20 02:06:38;;;;;;;3.60;2.60;;;15.60;89.90;;;;;;2050220;29;20089;-90
2021/10/20 02:07:39;;;;;;;4.15;2.60;;;15.60;89.90;;;;;;2050504;28;20565;-91
2021/10/20 02:08:41;;;;;;;4.90;2.78;;;15.60;89.80;;;;;;2058468;28;20094;-91
2021/10/20 02:09:42;;;;;;;4.07;2.58;;;15.60;89.70;;;;;;2059204;28;20588;-91
2021/10/20 02:10:43;;;;;;;4.00;2.70;;;15.60;89.60;;;;;;2058597;28;20035;-91
2021/10/20 02:11:44;;;;;;;3.70;2.63;;;15.60;89.60;;;;;;2050000;28;20078;-91
2021/10/20 02:12:45;;;;;;;4.00;2.55;;;15.60;89.60;;;;;;2050623;28;20039;-91
2021/10/20 02:13:46;;;;;;;4.65;2.45;;;15.60;89.60;;;;;;2051294;28;20039;-91
2021/10/20 02:14:47;;;;;;;3.42;2.50;;;15.60;89.60;;;;;;2051797;28;20466;-91
2021/10/20 02:15:48;;;;;;;3.17;2.53;;;15.60;89.60;;;;;;2046797;28;20051;-91
2021/10/20 02:16:48;;;;;;;3.70;2.40;;;15.60;89.60;;;;;;2054310;29;20076;-91
2021/10/20 02:17:49;;;;;;;4.28;2.17;;;15.60;89.70;;;;;;2039758;29;20072;-91
2021/10/20 02:18:50;;;;;;;3.75;2.45;;;15.60;89.70;;;;;;2045992;29;20060;-91
2021/10/20 02:19:51;;;;;;;3.58;2.53;;;15.60;89.70;;;;;;2062897;28;20062;-91
2021/10/20 02:20:52;;;;;;;4.50;2.30;;;15.60;89.80;;;;;;2070073;28;20038;-92
2021/10/20 02:21:54;;;;;;;3.03;2.00;;;15.60;89.80;;;;;;2062875;28;20038;-91
2021/10/20 02:22:55;;;;;;;4.72;2.65;;;15.60;89.80;;;;;;2072399;28;20031;-91
2021/10/20 02:23:56;;;;;;;3.58;2.30;;;15.50;89.70;;;;;;2071891;28;20069;-91
2021/10/20 02:24:56;;;;;;;3.72;2.15;;;15.50;89.70;;;;;;2071269;28;20036;-91
2021/10/20 02:25:57;;;;;;;4.55;2.58;;;15.50;89.70;;;;;;2071746;28;20029;-91
2021/10/20 02:26:58;;;;;;;3.90;2.40;;;15.50;89.70;;;;;;2068675;28;20062;-92
2021/10/20 02:27:59;;;;;;;6.75;2.40;;;15.50;89.70;;;;;;2063090;28;20039;-91
2021/10/20 02:28:59;;;;;;;3.58;2.35;;;15.50;89.70;;;;;;2054182;29;20040;-92
2021/10/20 02:30:00;;;;;;;3.80;2.17;;;15.50;89.70;;;;;;2056478;28;20051;-91
2021/10/20 02:31:01;;;;;;;3.55;2.28;;;15.50;89.70;;;;;;2060336;28;20049;-91
2021/10/20 02:32:02;;;;;;;3.53;2.42;;;15.50;89.70;;;;;;2058688;28;20038;-91
2021/10/20 02:33:03;;;;;;;3.40;2.10;;;15.50;89.70;;;;;;2058481;28;20046;-91
2021/10/20 02:34:04;;;;;;;5.25;2.20;;;15.50;89.70;;;;;;2060807;28;20082;-91
2021/10/20 02:35:06;;;;;;;3.17;2.10;;;15.50;89.70;;;;;;2058461;28;20066;-91
2021/10/20 02:36:07;;;;;;;4.13;2.20;;;15.40;89.60;;;;;;2066747;28;20046;-91
2021/10/20 02:37:08;;;;;;;3.22;2.20;;;15.50;89.70;;;;;;2066384;28;20042;-92
2021/10/20 02:38:08;;;;;;;3.20;2.10;;;15.50;89.60;;;;;;2066382;28;20061;-91
2021/10/20 02:39:10;;;;;;;3.92;2.45;;;15.50;89.60;;;;;;2066439;28;20047;-93
2021/10/20 02:40:12;;;;;;;3.78;2.40;;;15.40;89.60;;;;;;2074458;28;20034;-91
2021/10/20 02:41:13;;;;;;;3.80;2.28;;;15.50;89.60;;;;;;2066446;28;20129;-91
2021/10/20 02:42:14;;;;;;;3.75;2.45;;;15.50;89.60;;;;;;2058675;28;20034;-92
2021/10/20 02:43:14;;;;;;;4.45;2.30;;;15.40;89.50;;;;;;2066425;28;20516;-92
2021/10/20 02:44:15;;;;;;;3.40;2.15;;;15.40;89.50;;;;;;2058724;28;20050;-92
2021/10/20 02:45:17;;;;;;;4.03;2.30;;;15.40;89.50;;;;;;2052801;28;20531;-92
2021/10/20 02:46:17;;;;;;;4.03;2.58;;;15.40;89.50;;;;;;2062557;28;20046;-92
2021/10/20 02:47:18;;;;;;;3.42;2.08;;;15.40;89.50;;;;;;2059057;28;20046;-92
2021/10/20 02:48:19;;;;;;;3.70;2.20;;;15.40;89.50;;;;;;2062465;28;20046;-92
2021/10/20 02:49:19;;;;;;;4.55;2.50;;;15.40;89.40;;;;;;2062233;28;20129;-92
2021/10/20 02:50:22;;;;;;;3.65;2.50;;;15.40;89.40;;;;;;2070183;28;20036;-91
2021/10/20 02:51:24;;;;;;;4.03;2.47;;;15.40;89.40;;;;;;2062358;28;20045;-92
2021/10/20 02:52:24;;;;;;;3.25;2.15;;;15.40;89.30;;;;;;2046056;28;20032;-92
2021/10/20 02:53:25;;;;;;;3.65;2.30;;;15.40;89.30;;;;;;2047656;28;20040;-92
2021/10/20 02:54:26;;;;;;;3.70;2.30;;;15.40;89.30;;;;;;2050209;28;20512;-92
2021/10/20 02:55:26;;;;;;;3.78;2.50;;;15.40;89.30;;;;;;2050241;28;20110;-92
2021/10/20 02:56:27;;;;;;;3.65;2.28;;;15.40;89.30;;;;;;2058126;28;20043;-93
2021/10/20 02:57:28;;;;;;;4.03;2.50;;;15.40;89.20;;;;;;2058346;28;20038;-91
2021/10/20 02:58:29;;;;;;;3.97;2.40;;;15.40;89.20;;;;;;2066201;28;20038;-92
2021/10/20 02:59:29;;;;;;;4.13;2.65;;;15.40;89.20;;;;;;2058231;28;20027;-93
2021/10/20 03:00:30;;;;;;;3.72;2.53;;;15.40;89.30;;;;;;2058109;28;20493;-92
2021/10/20 03:01:31;;;;;;;3.92;2.30;;;15.40;89.30;;;;;;2068105;28;20050;-92
2021/10/20 03:02:32;;;;;;;3.55;2.47;;;15.40;89.30;;;;;;2058349;28;20125;-93
2021/10/20 03:03:33;;;;;;;5.90;2.50;;;15.40;89.40;;;;;;2050234;29;20126;-92
2021/10/20 03:04:33;;;;;;;3.42;2.40;;;15.40;89.40;;;;;;2052820;28;20062;-93
2021/10/20 03:05:34;;;;;;;3.53;2.33;;;15.40;89.30;;;;;;2072615;28;20029;-93
2021/10/20 03:06:35;;;;;;;3.75;2.60;;;15.40;89.30;;;;;;2072839;28;20088;-93
2021/10/20 03:07:36;;;;;;;3.95;2.30;;;15.40;89.30;;;;;;2058125;28;20034;-91
2021/10/20 03:08:37;;;;;;;3.10;2.20;;;15.40;89.30;;;;;;2066341;28;20088;-91
2021/10/20 03:09:37;;;;;;;4.88;2.88;;;15.40;89.40;;;;;;2058429;28;20125;-91
2021/10/20 03:10:39;;;;;;;3.08;2.15;;;15.30;89.30;;;;;;2058697;28;20584;-91
2021/10/20 03:11:40;;;;;;;3.67;2.45;;;15.30;89.40;;;;;;2063479;28;20031;-92
2021/10/20 03:12:41;;;;;;;4.00;2.38;;;15.40;89.40;;;;;;2042603;29;20036;-91
2021/10/20 03:13:42;;;;;;;3.33;2.40;;;15.30;89.40;;;;;;2042998;29;20040;-91
2021/10/20 03:14:43;;;;;;;3.72;2.30;;;15.30;89.40;;;;;;2050149;28;20059;-92
2021/10/20 03:15:43;;;;;;;3.95;2.30;;;15.30;89.40;;;;;;2057900;28;20493;-91
2021/10/20 03:16:44;;;;;;;3.85;2.10;;;15.30;89.40;;;;;;2058101;28;20031;-92
2021/10/20 03:17:45;;;;;;;3.90;2.10;;;15.30;89.40;;;;;;2042329;29;20039;-91
2021/10/20 03:18:45;;;;;;;3.50;2.28;;;15.30;89.50;;;;;;2050466;28;20031;-92
2021/10/20 03:19:46;;;;;;;3.35;2.20;;;15.30;89.50;;;;;;2058370;28;20038;-92
2021/10/20 03:20:47;;;;;;;6.28;2.15;;;15.30;89.40;;;;;;2034444;29;20037;-92
2021/10/20 03:21:48;;;;;;;3.42;2.40;;;15.30;89.50;;;;;;2050451;28;20469;-92
2021/10/20 03:22:49;;;;;;;3.10;2.20;;;15.30;89.40;;;;;;2042798;29;20143;-92
2021/10/20 03:23:50;;;;;;;4.15;2.55;;;15.30;89.50;;;;;;2050394;28;20126;-91
2021/10/20 03:24:50;;;;;;;3.30;2.17;;;15.30;89.50;;;;;;2050386;29;20054;-92
2021/10/20 03:25:51;;;;;;;3.25;2.10;;;15.30;89.50;;;;;;2042814;29;20098;-92
2021/10/20 03:26:52;;;;;;;3.75;2.38;;;15.30;89.50;;;;;;2050228;29;20039;-91
2021/10/20 03:27:53;;;;;;;3.17;2.10;;;15.30;89.50;;;;;;2042868;29;20059;-89
2021/10/20 03:28:53;;;;;;;4.07;2.47;;;15.30;89.50;;;;;;2052003;28;20505;-89
2021/10/20 03:29:54;;;;;;;3.92;2.40;;;15.30;89.40;;;;;;2051401;28;20062;-90
2021/10/20 03:30:55;;;;;;;4.25;2.38;;;15.30;89.40;;;;;;2058589;28;20035;-90
2021/10/20 03:31:55;;;;;;;3.70;2.50;;;15.30;89.40;;;;;;2052063;28;20469;-91
2021/10/20 03:32:56;;;;;;;4.03;2.80;;;15.30;89.30;;;;;;2057303;28;20027;-91
2021/10/20 03:33:57;;;;;;;6.15;2.85;;;15.30;89.30;;;;;;2074013;28;20033;-90
2021/10/20 03:34:58;;;;;;;4.35;2.50;;;15.30;89.20;;;;;;2057990;28;20045;-89
2021/10/20 03:35:58;;;;;;;6.57;2.95;;;15.30;89.20;;;;;;2057876;28;20420;-91
2021/10/20 03:36:59;;;;;;;3.65;2.53;;;15.30;89.20;;;;;;2050057;28;20138;-91
2021/10/20 03:38:00;;;;;;;6.07;2.65;;;15.30;89.20;;;;;;2042196;28;20100;-91
2021/10/20 03:39:01;;;;;;;4.30;2.83;;;15.30;89.10;;;;;;2050061;28;20449;-91
2021/10/20 03:40:03;;;;;;;4.20;2.70;;;15.30;89.10;;;;;;2065982;28;20034;-91
2021/10/20 03:41:04;;;;;;;5.35;2.80;;;15.30;89.10;;;;;;2073973;28;20027;-92
2021/10/20 03:42:05;;;;;;;4.75;2.75;;;15.30;89.10;;;;;;2060631;28;20456;-90
2021/10/20 03:43:06;;;;;;;3.10;2.30;;;15.30;89.10;;;;;;2057985;28;20125;-91
2021/10/20 03:44:07;;;;;;;3.70;2.60;;;15.30;89.10;;;;;;2052651;28;20093;-91
2021/10/20 03:45:08;;;;;;;3.75;2.50;;;15.30;89.10;;;;;;2052607;28;20425;-91
2021/10/20 03:46:09;;;;;;;3.90;2.60;;;15.30;89.10;;;;;;2065804;28;20039;-91
2021/10/20 03:47:09;;;;;;;4.55;2.90;;;15.30;89.10;;;;;;2049635;28;20049;-91
2021/10/20 03:48:10;;;;;;;5.07;2.97;;;15.40;89.10;;;;;;2057856;28;20035;-91
2021/10/20 03:49:11;;;;;;;4.43;2.63;;;15.40;89.10;;;;;;2058366;28;20035;-91
2021/10/20 03:50:12;;;;;;;4.32;2.72;;;15.40;89.10;;;;;;2058186;28;20134;-91
2021/10/20 03:51:13;;;;;;;4.72;2.70;;;15.40;89.10;;;;;;2050399;28;20536;-91
2021/10/20 03:52:14;;;;;;;5.57;2.83;;;15.40;89.10;;;;;;2057950;28;20097;-91
2021/10/20 03:53:14;;;;;;;4.20;2.58;;;15.40;89.10;;;;;;2053907;28;20035;-91
2021/10/20 03:54:15;;;;;;;4.53;2.80;;;15.40;89.10;;;;;;2057933;28;20536;-92
2021/10/20 03:55:16;;;;;;;4.45;2.97;;;15.40;89.00;;;;;;2054186;28;20046;-91
2021/10/20 03:56:17;;;;;;;5.90;3.08;;;15.40;89.00;;;;;;2058799;28;20031;-91
2021/10/20 03:57:18;;;;;;;4.75;3.05;;;15.40;88.90;;;;;;2042621;28;20036;-91
2021/10/20 03:58:20;;;;;;;5.55;3.20;;;15.40;88.90;;;;;;2042113;28;20040;-90
2021/10/20 03:59:21;;;;;;;4.93;3.00;;;15.40;88.80;;;;;;2057808;28;20042;-91
2021/10/20 04:00:22;;;;;;;6.07;3.20;;;15.40;88.80;;;;;;2057954;28;20049;-91
2021/10/20 04:01:22;;;;;;;4.65;2.90;;;15.40;88.80;;;;;;2073044;28;20208;-90
2021/10/20 04:02:23;;;;;;;4.47;2.63;;;15.40;88.80;;;;;;2074502;28;20559;-90
2021/10/20 04:03:24;;;;;;;4.72;3.17;;;15.40;88.80;;;;;;2064661;28;20105;-91
2021/10/20 04:04:24;;;;;;;4.75;2.88;;;15.40;88.80;;;;;;2058103;28;20042;-91
2021/10/20 04:05:25;;;;;;;5.20;3.08;;;15.40;88.80;;;;;;2042129;28;20433;-92
2021/10/20 04:06:26;;;;;;;4.15;2.83;;;15.40;88.80;;;;;;2050197;28;20075;-92
2021/10/20 04:07:26;;;;;;;5.88;3.28;;;15.40;88.70;;;;;;2058330;28;20085;-92
2021/10/20 04:08:27;;;;;;;4.72;2.88;;;15.40;88.60;;;;;;2058175;28;20042;-91
2021/10/20 04:09:28;;;;;;;5.55;3.03;;;15.40;88.60;;;;;;2058412;28;20043;-92
2021/10/20 04:10:28;;;;;;;5.20;3.20;;;15.50;88.60;;;;;;2058183;28;20552;-91
2021/10/20 04:11:29;;;;;;;5.43;3.03;;;15.50;88.60;;;;;;2048401;28;20418;-91
2021/10/20 04:12:30;;;;;;;4.32;2.92;;;15.50;88.50;;;;;;2066230;28;20065;-91
2021/10/20 04:13:31;;;;;;;4.82;3.10;;;15.40;88.50;;;;;;2066141;28;20038;-91
2021/10/20 04:14:31;;;;;;;5.25;2.85;;;15.50;88.50;;;;;;2066506;28;20490;-91
2021/10/20 04:15:32;;;;;;;5.03;3.10;;;15.50;88.50;;;;;;2066728;28;20043;-91
2021/10/20 04:16:33;;;;;;;4.50;2.88;;;15.50;88.50;;;;;;2068040;28;20039;-91
2021/10/20 04:17:34;;;;;;;4.13;2.90;;;15.40;88.50;;;;;;2054945;29;20063;-91
2021/10/20 04:18:34;;;;;;;5.32;2.97;;;15.40;88.50;;;;;;2054582;28;20050;-91
2021/10/20 04:19:36;;;;;;;4.03;2.80;;;15.40;88.50;;;;;;2045566;29;20063;-91
2021/10/20 04:20:37;;;;;;;7.10;3.10;;;15.40;88.60;;;;;;2052848;28;20473;-91
2021/10/20 04:21:37;;;;;;;3.90;2.60;;;15.40;88.60;;;;;;2059609;28;20095;-90
2021/10/20 04:22:39;;;;;;;5.13;3.00;;;15.40;88.60;;;;;;2064996;28;20065;-91
2021/10/20 04:23:39;;;;;;;4.45;3.08;;;15.40;88.60;;;;;;2066211;28;20049;-92
2021/10/20 04:24:40;;;;;;;5.43;2.88;;;15.40;88.60;;;;;;2057986;28;20612;-91
2021/10/20 04:25:41;;;;;;;4.63;2.90;;;15.40;88.60;;;;;;2049646;28;20071;-90
2021/10/20 04:26:41;;;;;;;4.45;2.92;;;15.40;88.70;;;;;;2057693;28;20525;-91
2021/10/20 04:27:43;;;;;;;4.47;3.03;;;15.40;88.60;;;;;;2057402;28;20035;-91
2021/10/20 04:28:44;;;;;;;4.95;2.80;;;15.40;88.60;;;;;;2050055;28;20031;-92
2021/10/20 04:29:44;;;;;;;4.85;2.90;;;15.40;88.60;;;;;;2065844;28;20031;-91
2021/10/20 04:30:45;;;;;;;3.80;2.95;;;15.40;88.60;;;;;;2065998;28;20069;-91
2021/10/20 04:31:46;;;;;;;4.88;2.67;;;15.40;88.60;;;;;;2057720;28;20460;-92
2021/10/20 04:32:47;;;;;;;4.47;2.72;;;15.40;88.70;;;;;;2049823;28;20183;-91
2021/10/20 04:33:47;;;;;;;4.88;2.90;;;15.40;88.60;;;;;;2050040;28;20035;-91
2021/10/20 04:34:48;;;;;;;5.45;3.03;;;15.40;88.60;;;;;;2057766;28;20042;-91
2021/10/20 04:35:49;;;;;;;5.65;2.80;;;15.40;88.60;;;;;;2062763;28;20132;-92
2021/10/20 04:36:50;;;;;;;3.60;2.40;;;15.40;88.60;;;;;;2050149;28;20042;-91
2021/10/20 04:37:51;;;;;;;4.47;2.85;;;15.50;88.70;;;;;;2049645;29;20597;-91
2021/10/20 04:38:52;;;;;;;4.47;2.90;;;15.50;88.70;;;;;;2066079;28;20057;-91
2021/10/20 04:39:56;;;;;;;4.72;2.70;;;15.50;88.70;;;;;;2049794;28;20091;-90
2021/10/20 04:40:57;;;;;;;5.32;2.90;;;15.50;88.60;;;;;;2051157;28;20030;-91
2021/10/20 04:41:58;;;;;;;5.70;3.10;;;15.50;88.60;;;;;;2065937;28;20547;-91
2021/10/20 04:42:58;;;;;;;4.25;2.60;;;15.50;88.60;;;;;;2057858;28;20035;-92
2021/10/20 04:43:59;;;;;;;4.18;2.70;;;15.50;88.60;;;;;;2049892;28;20043;-92
2021/10/20 04:45:01;;;;;;;4.22;2.70;;;15.50;88.60;;;;;;2057890;28;20062;-92
2021/10/20 04:46:01;;;;;;;4.40;2.92;;;15.50;88.60;;;;;;2049668;28;20082;-90
2021/10/20 04:47:02;;;;;;;5.03;2.35;;;15.50;88.50;;;;;;2050065;28;20048;-91
2021/10/20 04:48:04;;;;;;;4.35;2.83;;;15.50;88.50;;;;;;2049494;28;20039;-91
2021/10/20 04:49:05;;;;;;;4.65;2.70;;;15.50;88.50;;;;;;2051970;28;20042;-91
2021/10/20 04:50:08;;;;;;;4.95;2.85;;;15.50;88.50;;;;;;2058287;28;20042;-90
2021/10/20 04:51:09;;;;;;;4.80;2.90;;;15.50;88.40;;;;;;2058870;28;20038;-90
2021/10/20 04:52:10;;;;;;;4.57;2.92;;;15.50;88.40;;;;;;2066100;28;20420;-91
2021/10/20 04:53:12;;;;;;;4.88;3.00;;;15.60;88.50;;;;;;2057897;28;20031;-92
2021/10/20 04:54:13;;;;;;;5.45;3.40;;;15.50;88.40;;;;;;2058544;28;20155;-92
2021/10/20 04:55:14;;;;;;;4.35;2.65;;;15.60;88.50;;;;;;2057968;28;20039;-91
2021/10/20 04:56:15;;;;;;;4.55;2.92;;;15.50;88.40;;;;;;2066277;28;20035;-91
2021/10/20 04:57:16;;;;;;;4.70;2.60;;;15.60;88.40;;;;;;2054236;28;20529;-92
2021/10/20 04:58:16;;;;;;;4.28;2.75;;;15.60;88.40;;;;;;2060268;28;20031;-91
2021/10/20 04:59:17;;;;;;;4.90;2.85;;;15.60;88.40;;;;;;2065819;28;20037;-91
2021/10/20 05:00:20;;;;;;;4.45;2.85;;;15.60;88.40;;;;;;2050239;28;20051;-91
2021/10/20 05:01:20;;;;;;;4.03;2.63;;;15.60;88.40;;;;;;2058515;28;20042;-91
2021/10/20 05:02:21;;;;;;;4.85;3.08;;;15.60;88.40;;;;;;2074170;28;20039;-92
2021/10/20 05:03:22;;;;;;;4.50;2.97;;;15.60;88.40;;;;;;2058536;28;20055;-92
2021/10/20 05:04:23;;;;;;;4.47;2.55;;;15.60;88.40;;;;;;2051390;28;20047;-92
2021/10/20 05:05:23;;;;;;;5.25;3.15;;;15.60;88.40;;;;;;2046938;28;20441;-92
2021/10/20 05:06:24;;;;;;;4.63;3.13;;;15.60;88.40;;;;;;2049321;28;20032;-92
2021/10/20 05:07:25;;;;;;;4.88;3.15;;;15.60;88.40;;;;;;2067721;28;20078;-92
2021/10/20 05:08:25;;;;;;;5.40;3.22;;;15.60;88.40;;;;;;2060201;28;20062;-91
2021/10/20 05:09:26;;;;;;;5.65;3.20;;;15.60;88.30;;;;;;2055144;28;20051;-91
2021/10/20 05:10:27;;;;;;;5.07;3.20;;;15.60;88.30;;;;;;2057833;28;20035;-91
2021/10/20 05:11:28;;;;;;;4.57;3.25;;;15.60;88.30;;;;;;2057851;28;20476;-90
2021/10/20 05:12:29;;;;;;;4.68;3.25;;;15.60;88.20;;;;;;2060282;28;20035;-92
2021/10/20 05:13:30;;;;;;;6.68;3.50;;;15.60;88.20;;;;;;2052103;28;20043;-91
2021/10/20 05:14:30;;;;;;;4.60;3.22;;;15.60;88.10;;;;;;2052645;28;20053;-91
2021/10/20 05:15:31;;;;;;;5.97;3.50;;;15.60;88.20;;;;;;2060692;28;20035;-92
2021/10/20 05:16:32;;;;;;;4.65;3.05;;;15.60;88.20;;;;;;2059364;28;20039;-91
2021/10/20 05:17:33;;;;;;;4.47;3.40;;;15.60;88.20;;;;;;2067186;28;20070;-91
2021/10/20 05:18:33;;;;;;;4.90;3.28;;;15.60;88.20;;;;;;2052192;29;20101;-91